青島 の空港の天気 - METARとTAF

青島流亭国際空港 ( ZSQD / TAO ) - 中国 山東省青島市
飛行場実況気象(Metar)
観測時間07/13 06:00 CST (07/12 22:00 UTC)
風向・風速北 6m/s
視程10km以上
天気現象
全天の4割程度の雲 雲底高度 270m
全天を覆う雲 雲底高度 700m
気温20℃
湿度94%
気圧1003hPa
METARZSQD 122200Z 01006MPS 9999 SCT009 OVC023 20/19 Q1003 NOSIG
過去の天気等 Google飛行場航空写真 Wunderground天気予報

過去48時間のMETAR

飛行場予報(TAF)
発表時間: 7/12 23:13 CST (7/12 15:13 UTC)
予報対象時間: 13日2時 CST ~ 14日2時 CST
風向・風速北 7m/s
視程10km以上
全天の4割程度の雲 雲底高度 400m
全天を覆う雲 雲底高度 700m
13日17時 CST ~ 13日18時 CST に徐々に
風向・風速北北西 2m/s
TAF ZSQD 121513Z 1218/1318 36007MPS 9999 SCT013 OVC023 TX29/1306Z TN20/1221Z
BECMG 1309/1310 34002MPS